sensor_id;sensor_type;location;lat;lon;timestamp;P1;durP1;ratioP1;P2;durP2;ratioP2
27642;SDS011;15053;48.618;10.024;2023-01-10T00:01:48;2.65;;;1.08;;
27642;SDS011;15053;48.618;10.024;2023-01-10T00:04:14;3.55;;;1.65;;
27642;SDS011;15053;48.618;10.024;2023-01-10T00:06:41;4.35;;;1.17;;
27642;SDS011;15053;48.618;10.024;2023-01-10T00:09:08;8.43;;;1.40;;
27642;SDS011;15053;48.618;10.024;2023-01-10T00:11:35;2.70;;;1.38;;
27642;SDS011;15053;48.618;10.024;2023-01-10T00:14:20;4.03;;;1.48;;
27642;SDS011;15053;48.618;10.024;2023-01-10T00:16:47;2.63;;;1.25;;
27642;SDS011;15053;48.618;10.024;2023-01-10T00:19:13;5.45;;;2.63;;
27642;SDS011;15053;48.618;10.024;2023-01-10T00:21:40;2.85;;;1.40;;
27642;SDS011;15053;48.618;10.024;2023-01-10T00:24:06;3.33;;;1.52;;
27642;SDS011;15053;48.618;10.024;2023-01-10T00:26:44;3.30;;;1.40;;
27642;SDS011;15053;48.618;10.024;2023-01-10T00:29:17;3.42;;;1.27;;
27642;SDS011;15053;48.618;10.024;2023-01-10T00:31:48;3.70;;;1.38;;
27642;SDS011;15053;48.618;10.024;2023-01-10T00:34:15;3.28;;;1.13;;
27642;SDS011;15053;48.618;10.024;2023-01-10T00:36:41;2.30;;;1.13;;
27642;SDS011;15053;48.618;10.024;2023-01-10T00:39:10;6.78;;;1.50;;
27642;SDS011;15053;48.618;10.024;2023-01-10T00:41:37;4.60;;;1.48;;
27642;SDS011;15053;48.618;10.024;2023-01-10T00:44:22;1.90;;;1.13;;
27642;SDS011;15053;48.618;10.024;2023-01-10T00:46:49;3.42;;;1.30;;
27642;SDS011;15053;48.618;10.024;2023-01-10T00:49:15;1.42;;;1.30;;
27642;SDS011;15053;48.618;10.024;2023-01-10T00:51:42;1.23;;;1.05;;
27642;SDS011;15053;48.618;10.024;2023-01-10T00:54:10;1.42;;;1.30;;
27642;SDS011;15053;48.618;10.024;2023-01-10T00:56:37;2.03;;;1.20;;
27642;SDS011;15053;48.618;10.024;2023-01-10T00:59:04;1.50;;;1.10;;
27642;SDS011;15053;48.618;10.024;2023-01-10T01:01:31;2.38;;;1.30;;
27642;SDS011;15053;48.618;10.024;2023-01-10T01:03:58;1.77;;;1.30;;
27642;SDS011;15053;48.618;10.024;2023-01-10T01:06:25;4.15;;;1.20;;
27642;SDS011;15053;48.618;10.024;2023-01-10T01:08:51;1.27;;;1.10;;
27642;SDS011;15053;48.618;10.024;2023-01-10T01:11:18;2.25;;;1.35;;
27642;SDS011;15053;48.618;10.024;2023-01-10T01:13:44;1.95;;;1.65;;
27642;SDS011;15053;48.618;10.024;2023-01-10T01:16:10;1.50;;;1.40;;
27642;SDS011;15053;48.618;10.024;2023-01-10T01:18:37;1.38;;;1.27;;
27642;SDS011;15053;48.618;10.024;2023-01-10T01:21:03;1.35;;;1.25;;
27642;SDS011;15053;48.618;10.024;2023-01-10T01:23:32;2.47;;;1.30;;
27642;SDS011;15053;48.618;10.024;2023-01-10T01:25:59;1.60;;;1.15;;
27642;SDS011;15053;48.618;10.024;2023-01-10T01:28:26;2.20;;;0.90;;
27642;SDS011;15053;48.618;10.024;2023-01-10T01:30:52;2.03;;;1.17;;
27642;SDS011;15053;48.618;10.024;2023-01-10T01:33:19;1.52;;;1.20;;
27642;SDS011;15053;48.618;10.024;2023-01-10T01:35:46;1.95;;;1.27;;
27642;SDS011;15053;48.618;10.024;2023-01-10T01:38:14;1.50;;;1.40;;
27642;SDS011;15053;48.618;10.024;2023-01-10T01:40:42;2.42;;;1.58;;
27642;SDS011;15053;48.618;10.024;2023-01-10T01:43:18;3.22;;;1.48;;
27642;SDS011;15053;48.618;10.024;2023-01-10T01:45:49;4.90;;;1.95;;
27642;SDS011;15053;48.618;10.024;2023-01-10T01:51:09;2.80;;;2.47;;
27642;SDS011;15053;48.618;10.024;2023-01-10T01:53:43;4.63;;;2.33;;
27642;SDS011;15053;48.618;10.024;2023-01-10T01:56:16;3.10;;;2.30;;
27642;SDS011;15053;48.618;10.024;2023-01-10T01:58:53;2.90;;;2.45;;
27642;SDS011;15053;48.618;10.024;2023-01-10T02:01:25;2.80;;;1.83;;
27642;SDS011;15053;48.618;10.024;2023-01-10T02:04:12;1.42;;;1.33;;
27642;SDS011;15053;48.618;10.024;2023-01-10T02:06:43;2.88;;;2.00;;
27642;SDS011;15053;48.618;10.024;2023-01-10T02:09:15;1.55;;;1.38;;
27642;SDS011;15053;48.618;10.024;2023-01-10T02:11:49;1.50;;;1.40;;
27642;SDS011;15053;48.618;10.024;2023-01-10T02:14:16;1.70;;;1.50;;
27642;SDS011;15053;48.618;10.024;2023-01-10T02:16:45;1.75;;;1.65;;
27642;SDS011;15053;48.618;10.024;2023-01-10T02:22:25;3.70;;;3.00;;
27642;SDS011;15053;48.618;10.024;2023-01-10T02:30:51;3.33;;;2.78;;
27642;SDS011;15053;48.618;10.024;2023-01-10T02:41:51;2.55;;;2.08;;
27642;SDS011;15053;48.618;10.024;2023-01-10T02:47:02;1.80;;;1.70;;
27642;SDS011;15053;48.618;10.024;2023-01-10T02:49:29;1.88;;;1.75;;
27642;SDS011;15053;48.618;10.024;2023-01-10T02:51:56;2.90;;;2.55;;
27642;SDS011;15053;48.618;10.024;2023-01-10T02:54:24;2.00;;;1.80;;
27642;SDS011;15053;48.618;10.024;2023-01-10T03:11:00;3.45;;;2.42;;
27642;SDS011;15053;48.618;10.024;2023-01-10T03:16:09;1.75;;;1.65;;
27642;SDS011;15053;48.618;10.024;2023-01-10T03:18:42;2.25;;;2.00;;
27642;SDS011;15053;48.618;10.024;2023-01-10T03:21:19;2.70;;;1.92;;
27642;SDS011;15053;48.618;10.024;2023-01-10T03:23:49;3.42;;;2.15;;
27642;SDS011;15053;48.618;10.024;2023-01-10T03:26:21;1.33;;;1.23;;
27642;SDS011;15053;48.618;10.024;2023-01-10T03:28:57;1.40;;;1.25;;
27642;SDS011;15053;48.618;10.024;2023-01-10T03:31:35;1.52;;;1.38;;
27642;SDS011;15053;48.618;10.024;2023-01-10T03:34:05;4.20;;;2.67;;
27642;SDS011;15053;48.618;10.024;2023-01-10T03:36:50;1.00;;;1.00;;
27642;SDS011;15053;48.618;10.024;2023-01-10T03:45:05;1.10;;;1.00;;
27642;SDS011;15053;48.618;10.024;2023-01-10T03:52:40;1.05;;;0.98;;
27642;SDS011;15053;48.618;10.024;2023-01-10T03:55:09;0.98;;;0.85;;
27642;SDS011;15053;48.618;10.024;2023-01-10T03:57:40;0.70;;;0.70;;
27642;SDS011;15053;48.618;10.024;2023-01-10T04:00:07;1.20;;;1.10;;
27642;SDS011;15053;48.618;10.024;2023-01-10T04:02:35;2.22;;;0.90;;
27642;SDS011;15053;48.618;10.024;2023-01-10T04:05:01;0.70;;;0.70;;
27642;SDS011;15053;48.618;10.024;2023-01-10T04:07:28;0.70;;;0.70;;
27642;SDS011;15053;48.618;10.024;2023-01-10T04:09:54;1.00;;;0.80;;
27642;SDS011;15053;48.618;10.024;2023-01-10T04:12:21;0.80;;;0.80;;
27642;SDS011;15053;48.618;10.024;2023-01-10T04:14:47;1.15;;;1.08;;
27642;SDS011;15053;48.618;10.024;2023-01-10T04:17:14;1.00;;;1.00;;
27642;SDS011;15053;48.618;10.024;2023-01-10T04:19:42;0.93;;;0.93;;
27642;SDS011;15053;48.618;10.024;2023-01-10T04:22:09;1.10;;;1.00;;
27642;SDS011;15053;48.618;10.024;2023-01-10T04:24:37;1.20;;;1.10;;
27642;SDS011;15053;48.618;10.024;2023-01-10T04:27:04;1.30;;;1.17;;
27642;SDS011;15053;48.618;10.024;2023-01-10T04:29:31;2.00;;;1.73;;
27642;SDS011;15053;48.618;10.024;2023-01-10T04:31:57;1.52;;;1.33;;
27642;SDS011;15053;48.618;10.024;2023-01-10T04:34:24;2.35;;;1.85;;
27642;SDS011;15053;48.618;10.024;2023-01-10T04:36:50;2.85;;;2.08;;
27642;SDS011;15053;48.618;10.024;2023-01-10T04:39:16;3.83;;;2.75;;
27642;SDS011;15053;48.618;10.024;2023-01-10T04:41:43;7.88;;;3.90;;
27642;SDS011;15053;48.618;10.024;2023-01-10T04:44:09;10.05;;;4.88;;
27642;SDS011;15053;48.618;10.024;2023-01-10T04:46:36;6.72;;;5.15;;
27642;SDS011;15053;48.618;10.024;2023-01-10T04:49:03;8.98;;;5.05;;
27642;SDS011;15053;48.618;10.024;2023-01-10T04:51:29;9.23;;;5.30;;
27642;SDS011;15053;48.618;10.024;2023-01-10T04:53:55;9.13;;;4.28;;
27642;SDS011;15053;48.618;10.024;2023-01-10T04:56:22;9.13;;;5.00;;
27642;SDS011;15053;48.618;10.024;2023-01-10T04:58:49;11.30;;;5.57;;
27642;SDS011;15053;48.618;10.024;2023-01-10T05:01:20;9.88;;;6.22;;
27642;SDS011;15053;48.618;10.024;2023-01-10T05:03:49;10.30;;;4.63;;
27642;SDS011;15053;48.618;10.024;2023-01-10T05:06:16;8.63;;;5.10;;
27642;SDS011;15053;48.618;10.024;2023-01-10T05:08:43;8.57;;;4.63;;
27642;SDS011;15053;48.618;10.024;2023-01-10T05:11:10;13.27;;;5.43;;
27642;SDS011;15053;48.618;10.024;2023-01-10T05:13:37;8.00;;;4.32;;
27642;SDS011;15053;48.618;10.024;2023-01-10T05:16:03;8.35;;;4.18;;
27642;SDS011;15053;48.618;10.024;2023-01-10T05:18:30;12.77;;;3.80;;
27642;SDS011;15053;48.618;10.024;2023-01-10T05:21:00;7.90;;;3.97;;
27642;SDS011;15053;48.618;10.024;2023-01-10T05:23:31;8.82;;;4.00;;
27642;SDS011;15053;48.618;10.024;2023-01-10T05:26:04;10.18;;;5.50;;
27642;SDS011;15053;48.618;10.024;2023-01-10T05:28:32;9.73;;;4.70;;
27642;SDS011;15053;48.618;10.024;2023-01-10T05:30:59;13.27;;;6.72;;
27642;SDS011;15053;48.618;10.024;2023-01-10T05:33:25;13.80;;;4.93;;
27642;SDS011;15053;48.618;10.024;2023-01-10T05:35:52;15.05;;;4.85;;
27642;SDS011;15053;48.618;10.024;2023-01-10T05:38:18;11.38;;;5.03;;
27642;SDS011;15053;48.618;10.024;2023-01-10T05:40:45;17.55;;;5.72;;
27642;SDS011;15053;48.618;10.024;2023-01-10T05:43:11;19.52;;;5.60;;
27642;SDS011;15053;48.618;10.024;2023-01-10T05:45:37;11.23;;;5.28;;
27642;SDS011;15053;48.618;10.024;2023-01-10T05:48:04;12.27;;;5.00;;
27642;SDS011;15053;48.618;10.024;2023-01-10T05:50:30;14.18;;;6.13;;
27642;SDS011;15053;48.618;10.024;2023-01-10T05:52:58;13.45;;;6.68;;
27642;SDS011;15053;48.618;10.024;2023-01-10T05:55:28;13.55;;;6.55;;
27642;SDS011;15053;48.618;10.024;2023-01-10T05:57:55;15.52;;;6.30;;
27642;SDS011;15053;48.618;10.024;2023-01-10T06:00:22;13.85;;;6.70;;
27642;SDS011;15053;48.618;10.024;2023-01-10T06:02:50;11.23;;;6.78;;
27642;SDS011;15053;48.618;10.024;2023-01-10T06:05:20;11.00;;;6.20;;
27642;SDS011;15053;48.618;10.024;2023-01-10T06:07:47;12.02;;;6.30;;
27642;SDS011;15053;48.618;10.024;2023-01-10T06:10:13;10.82;;;6.43;;
27642;SDS011;15053;48.618;10.024;2023-01-10T06:12:40;10.63;;;5.15;;
27642;SDS011;15053;48.618;10.024;2023-01-10T06:15:08;9.40;;;4.68;;
27642;SDS011;15053;48.618;10.024;2023-01-10T06:17:35;15.75;;;4.80;;
27642;SDS011;15053;48.618;10.024;2023-01-10T06:20:01;12.07;;;5.70;;
27642;SDS011;15053;48.618;10.024;2023-01-10T06:22:28;23.02;;;6.65;;
27642;SDS011;15053;48.618;10.024;2023-01-10T06:24:54;10.60;;;4.78;;
27642;SDS011;15053;48.618;10.024;2023-01-10T06:27:21;12.60;;;5.43;;
27642;SDS011;15053;48.618;10.024;2023-01-10T06:29:47;10.18;;;4.10;;
27642;SDS011;15053;48.618;10.024;2023-01-10T06:32:14;10.68;;;4.57;;
27642;SDS011;15053;48.618;10.024;2023-01-10T06:34:40;12.40;;;4.75;;
27642;SDS011;15053;48.618;10.024;2023-01-10T06:37:07;8.82;;;4.80;;
27642;SDS011;15053;48.618;10.024;2023-01-10T06:39:33;11.05;;;4.88;;
27642;SDS011;15053;48.618;10.024;2023-01-10T06:42:00;10.50;;;4.72;;
27642;SDS011;15053;48.618;10.024;2023-01-10T06:44:26;11.35;;;5.07;;
27642;SDS011;15053;48.618;10.024;2023-01-10T06:46:53;11.82;;;4.47;;
27642;SDS011;15053;48.618;10.024;2023-01-10T06:49:19;8.70;;;4.53;;
27642;SDS011;15053;48.618;10.024;2023-01-10T06:51:45;8.70;;;3.90;;
27642;SDS011;15053;48.618;10.024;2023-01-10T06:54:12;7.28;;;4.28;;
27642;SDS011;15053;48.618;10.024;2023-01-10T06:56:38;14.07;;;4.65;;
27642;SDS011;15053;48.618;10.024;2023-01-10T06:59:05;9.68;;;3.70;;
27642;SDS011;15053;48.618;10.024;2023-01-10T07:01:33;11.70;;;3.95;;
27642;SDS011;15053;48.618;10.024;2023-01-10T07:04:00;13.18;;;3.92;;
27642;SDS011;15053;48.618;10.024;2023-01-10T07:06:27;12.52;;;3.97;;
27642;SDS011;15053;48.618;10.024;2023-01-10T07:08:53;9.88;;;4.05;;
27642;SDS011;15053;48.618;10.024;2023-01-10T07:11:20;10.68;;;3.40;;
27642;SDS011;15053;48.618;10.024;2023-01-10T07:13:46;10.60;;;4.38;;
27642;SDS011;15053;48.618;10.024;2023-01-10T07:16:13;10.00;;;3.30;;
27642;SDS011;15053;48.618;10.024;2023-01-10T07:18:41;13.93;;;4.78;;
27642;SDS011;15053;48.618;10.024;2023-01-10T07:21:08;8.82;;;3.78;;
27642;SDS011;15053;48.618;10.024;2023-01-10T07:23:35;15.88;;;3.90;;
27642;SDS011;15053;48.618;10.024;2023-01-10T07:26:09;10.55;;;4.88;;
27642;SDS011;15053;48.618;10.024;2023-01-10T07:28:36;16.05;;;3.67;;
27642;SDS011;15053;48.618;10.024;2023-01-10T07:31:03;13.48;;;3.83;;
27642;SDS011;15053;48.618;10.024;2023-01-10T07:33:31;7.85;;;3.50;;
27642;SDS011;15053;48.618;10.024;2023-01-10T07:35:58;9.00;;;3.65;;
27642;SDS011;15053;48.618;10.024;2023-01-10T07:38:26;10.63;;;4.00;;
27642;SDS011;15053;48.618;10.024;2023-01-10T07:40:53;11.43;;;3.80;;
27642;SDS011;15053;48.618;10.024;2023-01-10T07:43:19;8.55;;;3.60;;
27642;SDS011;15053;48.618;10.024;2023-01-10T07:45:45;11.18;;;3.30;;
27642;SDS011;15053;48.618;10.024;2023-01-10T07:48:12;10.27;;;3.42;;
27642;SDS011;15053;48.618;10.024;2023-01-10T07:50:38;11.50;;;3.10;;
27642;SDS011;15053;48.618;10.024;2023-01-10T07:53:05;15.38;;;4.07;;
27642;SDS011;15053;48.618;10.024;2023-01-10T07:55:33;10.65;;;3.30;;
27642;SDS011;15053;48.618;10.024;2023-01-10T07:58:04;7.80;;;3.20;;
27642;SDS011;15053;48.618;10.024;2023-01-10T08:00:35;9.63;;;3.38;;
27642;SDS011;15053;48.618;10.024;2023-01-10T08:03:02;8.38;;;2.65;;
27642;SDS011;15053;48.618;10.024;2023-01-10T08:05:29;7.05;;;2.72;;
27642;SDS011;15053;48.618;10.024;2023-01-10T08:07:55;15.15;;;2.60;;
27642;SDS011;15053;48.618;10.024;2023-01-10T08:10:25;10.38;;;3.00;;
27642;SDS011;15053;48.618;10.024;2023-01-10T08:12:52;8.23;;;2.78;;
27642;SDS011;15053;48.618;10.024;2023-01-10T08:15:19;9.10;;;2.13;;
27642;SDS011;15053;48.618;10.024;2023-01-10T08:17:45;8.07;;;2.92;;
27642;SDS011;15053;48.618;10.024;2023-01-10T08:20:12;11.20;;;2.45;;
27642;SDS011;15053;48.618;10.024;2023-01-10T08:22:38;8.63;;;2.00;;
27642;SDS011;15053;48.618;10.024;2023-01-10T08:25:05;5.80;;;1.83;;
27642;SDS011;15053;48.618;10.024;2023-01-10T08:27:31;11.07;;;2.30;;
27642;SDS011;15053;48.618;10.024;2023-01-10T08:29:58;10.05;;;2.33;;
27642;SDS011;15053;48.618;10.024;2023-01-10T08:32:24;4.65;;;1.95;;
27642;SDS011;15053;48.618;10.024;2023-01-10T08:34:51;4.55;;;1.80;;
27642;SDS011;15053;48.618;10.024;2023-01-10T08:37:17;6.35;;;1.80;;
27642;SDS011;15053;48.618;10.024;2023-01-10T08:39:44;9.13;;;2.38;;
27642;SDS011;15053;48.618;10.024;2023-01-10T08:42:10;13.95;;;2.20;;
27642;SDS011;15053;48.618;10.024;2023-01-10T08:44:37;7.63;;;1.58;;
27642;SDS011;15053;48.618;10.024;2023-01-10T08:47:03;8.48;;;2.20;;
27642;SDS011;15053;48.618;10.024;2023-01-10T08:49:29;8.85;;;2.03;;
27642;SDS011;15053;48.618;10.024;2023-01-10T08:51:56;10.43;;;1.73;;
27642;SDS011;15053;48.618;10.024;2023-01-10T08:54:22;6.13;;;2.03;;
27642;SDS011;15053;48.618;10.024;2023-01-10T08:56:49;8.00;;;2.05;;
27642;SDS011;15053;48.618;10.024;2023-01-10T08:59:16;4.47;;;1.52;;
27642;SDS011;15053;48.618;10.024;2023-01-10T09:01:42;9.00;;;1.60;;
27642;SDS011;15053;48.618;10.024;2023-01-10T09:04:09;8.90;;;2.67;;
27642;SDS011;15053;48.618;10.024;2023-01-10T09:06:35;3.78;;;1.55;;
27642;SDS011;15053;48.618;10.024;2023-01-10T09:09:03;8.02;;;1.98;;
27642;SDS011;15053;48.618;10.024;2023-01-10T09:11:29;6.53;;;2.30;;
27642;SDS011;15053;48.618;10.024;2023-01-10T09:13:56;7.78;;;1.70;;
27642;SDS011;15053;48.618;10.024;2023-01-10T09:16:22;12.43;;;2.13;;
27642;SDS011;15053;48.618;10.024;2023-01-10T09:18:49;4.65;;;1.70;;
27642;SDS011;15053;48.618;10.024;2023-01-10T09:21:15;4.15;;;1.52;;
27642;SDS011;15053;48.618;10.024;2023-01-10T09:23:42;7.55;;;2.00;;
27642;SDS011;15053;48.618;10.024;2023-01-10T09:26:09;6.07;;;1.90;;
27642;SDS011;15053;48.618;10.024;2023-01-10T09:28:35;6.22;;;1.90;;
27642;SDS011;15053;48.618;10.024;2023-01-10T09:31:02;3.08;;;1.35;;
27642;SDS011;15053;48.618;10.024;2023-01-10T09:33:30;9.18;;;2.08;;
27642;SDS011;15053;48.618;10.024;2023-01-10T09:36:11;9.45;;;2.15;;
27642;SDS011;15053;48.618;10.024;2023-01-10T09:38:38;7.72;;;2.00;;
27642;SDS011;15053;48.618;10.024;2023-01-10T09:41:24;8.65;;;2.42;;
27642;SDS011;15053;48.618;10.024;2023-01-10T09:43:55;11.73;;;2.20;;
27642;SDS011;15053;48.618;10.024;2023-01-10T09:49:16;5.75;;;1.90;;
27642;SDS011;15053;48.618;10.024;2023-01-10T09:51:48;3.22;;;1.30;;
27642;SDS011;15053;48.618;10.024;2023-01-10T09:54:33;7.60;;;1.40;;
27642;SDS011;15053;48.618;10.024;2023-01-10T09:57:04;11.18;;;1.67;;
27642;SDS011;15053;48.618;10.024;2023-01-10T09:59:35;8.52;;;1.88;;
27642;SDS011;15053;48.618;10.024;2023-01-10T10:02:14;4.72;;;1.95;;
27642;SDS011;15053;48.618;10.024;2023-01-10T10:07:34;4.07;;;1.33;;
27642;SDS011;15053;48.618;10.024;2023-01-10T10:10:03;6.45;;;1.45;;
27642;SDS011;15053;48.618;10.024;2023-01-10T10:12:40;11.30;;;1.83;;
27642;SDS011;15053;48.618;10.024;2023-01-10T10:18:08;2.83;;;1.65;;
27642;SDS011;15053;48.618;10.024;2023-01-10T10:20:49;9.48;;;2.47;;
27642;SDS011;15053;48.618;10.024;2023-01-10T10:23:47;11.48;;;2.65;;
27642;SDS011;15053;48.618;10.024;2023-01-10T10:34:37;6.65;;;1.90;;
27642;SDS011;15053;48.618;10.024;2023-01-10T10:37:12;12.77;;;2.45;;
27642;SDS011;15053;48.618;10.024;2023-01-10T10:39:44;5.53;;;1.63;;
27642;SDS011;15053;48.618;10.024;2023-01-10T10:42:27;8.23;;;2.07;;
27642;SDS011;15053;48.618;10.024;2023-01-10T10:47:35;10.07;;;2.10;;
27642;SDS011;15053;48.618;10.024;2023-01-10T10:52:41;11.10;;;2.30;;
27642;SDS011;15053;48.618;10.024;2023-01-10T10:55:15;9.38;;;2.40;;
27642;SDS011;15053;48.618;10.024;2023-01-10T10:57:44;6.60;;;1.90;;
27642;SDS011;15053;48.618;10.024;2023-01-10T11:00:25;12.35;;;2.55;;
27642;SDS011;15053;48.618;10.024;2023-01-10T11:05:56;8.57;;;2.17;;
27642;SDS011;15053;48.618;10.024;2023-01-10T11:08:25;6.57;;;2.30;;
27642;SDS011;15053;48.618;10.024;2023-01-10T11:10:55;10.82;;;2.90;;
27642;SDS011;15053;48.618;10.024;2023-01-10T11:15:59;11.57;;;2.22;;
27642;SDS011;15053;48.618;10.024;2023-01-10T11:18:28;6.65;;;2.08;;
27642;SDS011;15053;48.618;10.024;2023-01-10T11:21:05;8.18;;;2.58;;
27642;SDS011;15053;48.618;10.024;2023-01-10T11:26:06;9.68;;;3.30;;
27642;SDS011;15053;48.618;10.024;2023-01-10T11:28:36;15.55;;;2.90;;
27642;SDS011;15053;48.618;10.024;2023-01-10T11:31:03;4.15;;;2.25;;
27642;SDS011;15053;48.618;10.024;2023-01-10T11:33:30;5.25;;;1.73;;
27642;SDS011;15053;48.618;10.024;2023-01-10T11:36:05;9.18;;;2.40;;
27642;SDS011;15053;48.618;10.024;2023-01-10T11:38:34;7.78;;;2.42;;
27642;SDS011;15053;48.618;10.024;2023-01-10T11:41:05;7.05;;;1.75;;
27642;SDS011;15053;48.618;10.024;2023-01-10T11:43:48;4.90;;;1.50;;
27642;SDS011;15053;48.618;10.024;2023-01-10T11:46:15;8.73;;;2.05;;
27642;SDS011;15053;48.618;10.024;2023-01-10T11:48:58;10.32;;;2.05;;
27642;SDS011;15053;48.618;10.024;2023-01-10T11:51:36;8.70;;;2.95;;
27642;SDS011;15053;48.618;10.024;2023-01-10T11:54:10;12.23;;;2.00;;
27642;SDS011;15053;48.618;10.024;2023-01-10T11:56:38;6.90;;;2.17;;
27642;SDS011;15053;48.618;10.024;2023-01-10T11:59:15;7.32;;;1.73;;
27642;SDS011;15053;48.618;10.024;2023-01-10T12:01:44;4.78;;;1.50;;
27642;SDS011;15053;48.618;10.024;2023-01-10T12:04:19;8.38;;;1.77;;
27642;SDS011;15053;48.618;10.024;2023-01-10T12:06:47;7.32;;;2.05;;
27642;SDS011;15053;48.618;10.024;2023-01-10T12:12:26;8.32;;;1.70;;
27642;SDS011;15053;48.618;10.024;2023-01-10T12:14:54;9.20;;;1.70;;
27642;SDS011;15053;48.618;10.024;2023-01-10T12:19:51;5.85;;;1.58;;
27642;SDS011;15053;48.618;10.024;2023-01-10T12:22:21;3.55;;;1.52;;
27642;SDS011;15053;48.618;10.024;2023-01-10T12:24:55;5.88;;;1.80;;
27642;SDS011;15053;48.618;10.024;2023-01-10T12:27:25;7.07;;;1.85;;
27642;SDS011;15053;48.618;10.024;2023-01-10T12:32:41;9.48;;;1.58;;
27642;SDS011;15053;48.618;10.024;2023-01-10T12:35:15;10.43;;;3.25;;
27642;SDS011;15053;48.618;10.024;2023-01-10T12:38:02;4.53;;;1.60;;
27642;SDS011;15053;48.618;10.024;2023-01-10T12:43:20;13.93;;;2.03;;
27642;SDS011;15053;48.618;10.024;2023-01-10T12:46:12;5.28;;;1.40;;
27642;SDS011;15053;48.618;10.024;2023-01-10T12:49:06;5.63;;;1.77;;
27642;SDS011;15053;48.618;10.024;2023-01-10T12:51:43;2.35;;;1.02;;
27642;SDS011;15053;48.618;10.024;2023-01-10T12:54:15;2.92;;;1.20;;
27642;SDS011;15053;48.618;10.024;2023-01-10T12:56:54;9.95;;;1.80;;
27642;SDS011;15053;48.618;10.024;2023-01-10T12:59:25;9.85;;;2.35;;
27642;SDS011;15053;48.618;10.024;2023-01-10T13:02:03;6.20;;;1.92;;
27642;SDS011;15053;48.618;10.024;2023-01-10T13:04:39;9.32;;;1.60;;
27642;SDS011;15053;48.618;10.024;2023-01-10T13:07:09;11.88;;;2.00;;
27642;SDS011;15053;48.618;10.024;2023-01-10T13:09:38;8.57;;;3.10;;
27642;SDS011;15053;48.618;10.024;2023-01-10T13:12:09;6.85;;;1.77;;
27642;SDS011;15053;48.618;10.024;2023-01-10T13:22:42;3.65;;;1.73;;
27642;SDS011;15053;48.618;10.024;2023-01-10T13:25:30;7.40;;;1.80;;
27642;SDS011;15053;48.618;10.024;2023-01-10T13:28:04;13.70;;;2.40;;
27642;SDS011;15053;48.618;10.024;2023-01-10T13:33:06;7.22;;;2.20;;
27642;SDS011;15053;48.618;10.024;2023-01-10T13:35:44;7.50;;;1.70;;
27642;SDS011;15053;48.618;10.024;2023-01-10T13:38:17;7.32;;;2.03;;
27642;SDS011;15053;48.618;10.024;2023-01-10T13:40:57;10.38;;;1.92;;
27642;SDS011;15053;48.618;10.024;2023-01-10T13:48:40;4.53;;;1.60;;
27642;SDS011;15053;48.618;10.024;2023-01-10T13:51:29;2.70;;;1.70;;
27642;SDS011;15053;48.618;10.024;2023-01-10T13:54:00;6.80;;;1.30;;
27642;SDS011;15053;48.618;10.024;2023-01-10T13:56:49;8.75;;;2.58;;
27642;SDS011;15053;48.618;10.024;2023-01-10T14:02:24;6.57;;;1.73;;
27642;SDS011;15053;48.618;10.024;2023-01-10T14:05:05;4.32;;;1.27;;
27642;SDS011;15053;48.618;10.024;2023-01-10T14:07:50;5.88;;;1.17;;
27642;SDS011;15053;48.618;10.024;2023-01-10T14:10:21;5.75;;;1.60;;
27642;SDS011;15053;48.618;10.024;2023-01-10T14:12:53;8.15;;;1.67;;
27642;SDS011;15053;48.618;10.024;2023-01-10T14:15:41;11.18;;;3.45;;
27642;SDS011;15053;48.618;10.024;2023-01-10T14:20:57;6.13;;;1.98;;
27642;SDS011;15053;48.618;10.024;2023-01-10T14:23:36;11.00;;;4.50;;
27642;SDS011;15053;48.618;10.024;2023-01-10T14:26:10;7.07;;;1.98;;
27642;SDS011;15053;48.618;10.024;2023-01-10T14:28:58;12.60;;;5.50;;
27642;SDS011;15053;48.618;10.024;2023-01-10T14:31:27;7.65;;;3.10;;
27642;SDS011;15053;48.618;10.024;2023-01-10T14:33:54;12.60;;;4.75;;
27642;SDS011;15053;48.618;10.024;2023-01-10T14:36:28;17.10;;;5.38;;
27642;SDS011;15053;48.618;10.024;2023-01-10T14:38:59;8.27;;;2.20;;
27642;SDS011;15053;48.618;10.024;2023-01-10T14:41:36;4.57;;;1.83;;
27642;SDS011;15053;48.618;10.024;2023-01-10T14:44:12;24.65;;;9.15;;
27642;SDS011;15053;48.618;10.024;2023-01-10T14:49:30;9.77;;;1.60;;
27642;SDS011;15053;48.618;10.024;2023-01-10T14:52:11;8.32;;;3.38;;
27642;SDS011;15053;48.618;10.024;2023-01-10T14:55:01;9.68;;;3.33;;
27642;SDS011;15053;48.618;10.024;2023-01-10T14:57:56;13.68;;;5.28;;
27642;SDS011;15053;48.618;10.024;2023-01-10T15:00:28;10.00;;;4.38;;
27642;SDS011;15053;48.618;10.024;2023-01-10T15:02:57;5.40;;;2.15;;
27642;SDS011;15053;48.618;10.024;2023-01-10T15:05:31;6.40;;;2.13;;
27642;SDS011;15053;48.618;10.024;2023-01-10T15:08:14;4.82;;;1.70;;
27642;SDS011;15053;48.618;10.024;2023-01-10T15:10:49;8.48;;;1.38;;
27642;SDS011;15053;48.618;10.024;2023-01-10T15:13:43;2.05;;;1.60;;
27642;SDS011;15053;48.618;10.024;2023-01-10T15:16:21;6.32;;;1.70;;
27642;SDS011;15053;48.618;10.024;2023-01-10T15:18:49;5.05;;;1.65;;
27642;SDS011;15053;48.618;10.024;2023-01-10T15:21:16;6.40;;;1.60;;
27642;SDS011;15053;48.618;10.024;2023-01-10T15:23:47;4.88;;;1.42;;
27642;SDS011;15053;48.618;10.024;2023-01-10T15:26:16;4.38;;;1.80;;
27642;SDS011;15053;48.618;10.024;2023-01-10T15:31:38;5.90;;;2.33;;
27642;SDS011;15053;48.618;10.024;2023-01-10T15:34:07;3.40;;;1.10;;
27642;SDS011;15053;48.618;10.024;2023-01-10T15:36:36;2.90;;;1.63;;
27642;SDS011;15053;48.618;10.024;2023-01-10T15:39:17;7.90;;;1.45;;
27642;SDS011;15053;48.618;10.024;2023-01-10T15:41:46;2.28;;;1.38;;
27642;SDS011;15053;48.618;10.024;2023-01-10T15:44:20;4.35;;;1.20;;
27642;SDS011;15053;48.618;10.024;2023-01-10T15:46:57;5.05;;;1.50;;
27642;SDS011;15053;48.618;10.024;2023-01-10T15:49:24;3.75;;;1.75;;
27642;SDS011;15053;48.618;10.024;2023-01-10T15:51:51;6.13;;;1.20;;
27642;SDS011;15053;48.618;10.024;2023-01-10T15:56:48;5.75;;;1.42;;
27642;SDS011;15053;48.618;10.024;2023-01-10T15:59:30;8.63;;;1.73;;
27642;SDS011;15053;48.618;10.024;2023-01-10T16:02:15;10.93;;;3.05;;
27642;SDS011;15053;48.618;10.024;2023-01-10T16:04:51;7.05;;;1.58;;
27642;SDS011;15053;48.618;10.024;2023-01-10T16:10:02;3.50;;;1.10;;
27642;SDS011;15053;48.618;10.024;2023-01-10T16:12:35;3.67;;;1.30;;
27642;SDS011;15053;48.618;10.024;2023-01-10T16:15:23;6.35;;;1.45;;
27642;SDS011;15053;48.618;10.024;2023-01-10T16:17:54;8.95;;;3.25;;
27642;SDS011;15053;48.618;10.024;2023-01-10T16:20:22;6.05;;;1.80;;
27642;SDS011;15053;48.618;10.024;2023-01-10T16:22:52;8.43;;;1.80;;
27642;SDS011;15053;48.618;10.024;2023-01-10T16:25:30;4.20;;;1.77;;
27642;SDS011;15053;48.618;10.024;2023-01-10T16:27:59;3.22;;;1.10;;
27642;SDS011;15053;48.618;10.024;2023-01-10T16:30:27;3.83;;;1.90;;
27642;SDS011;15053;48.618;10.024;2023-01-10T16:32:58;3.50;;;1.08;;
27642;SDS011;15053;48.618;10.024;2023-01-10T16:35:27;6.47;;;1.30;;
27642;SDS011;15053;48.618;10.024;2023-01-10T16:37:56;8.38;;;1.52;;
27642;SDS011;15053;48.618;10.024;2023-01-10T16:42:54;6.18;;;1.63;;
27642;SDS011;15053;48.618;10.024;2023-01-10T16:45:39;4.85;;;1.10;;
27642;SDS011;15053;48.618;10.024;2023-01-10T16:48:06;6.78;;;1.25;;
27642;SDS011;15053;48.618;10.024;2023-01-10T16:50:33;3.97;;;1.00;;
27642;SDS011;15053;48.618;10.024;2023-01-10T16:52:59;4.88;;;1.23;;
27642;SDS011;15053;48.618;10.024;2023-01-10T16:58:07;6.28;;;1.65;;
27642;SDS011;15053;48.618;10.024;2023-01-10T17:00:34;4.68;;;1.45;;